sensor_id;sensor_type;location;lat;lon;timestamp;temperature;humidity
73322;DHT22;61549;37.044;22.128;2022-11-20T00:00:00;22.20;60.20
73322;DHT22;61549;37.044;22.128;2022-11-20T00:02:26;22.20;60.20
73322;DHT22;61549;37.044;22.128;2022-11-20T00:04:52;22.20;59.80
73322;DHT22;61549;37.044;22.128;2022-11-20T00:07:18;22.10;59.70
73322;DHT22;61549;37.044;22.128;2022-11-20T00:09:44;22.10;59.80
73322;DHT22;61549;37.044;22.128;2022-11-20T00:12:10;22.20;60.40
73322;DHT22;61549;37.044;22.128;2022-11-20T00:14:35;22.10;60.90
73322;DHT22;61549;37.044;22.128;2022-11-20T00:17:01;22.20;60.80
73322;DHT22;61549;37.044;22.128;2022-11-20T00:19:27;22.20;61.00
73322;DHT22;61549;37.044;22.128;2022-11-20T00:21:53;22.10;60.50
73322;DHT22;61549;37.044;22.128;2022-11-20T00:24:21;22.10;60.20
73322;DHT22;61549;37.044;22.128;2022-11-20T00:26:47;22.10;59.70
73322;DHT22;61549;37.044;22.128;2022-11-20T00:29:12;22.10;60.70
73322;DHT22;61549;37.044;22.128;2022-11-20T00:31:38;22.10;60.60
73322;DHT22;61549;37.044;22.128;2022-11-20T00:34:04;22.10;59.70
73322;DHT22;61549;37.044;22.128;2022-11-20T00:36:33;22.10;60.20
73322;DHT22;61549;37.044;22.128;2022-11-20T00:38:59;22.00;58.20
73322;DHT22;61549;37.044;22.128;2022-11-20T00:41:26;21.90;57.80
73322;DHT22;61549;37.044;22.128;2022-11-20T00:43:53;22.00;58.30
73322;DHT22;61549;37.044;22.128;2022-11-20T00:46:22;22.00;58.70
73322;DHT22;61549;37.044;22.128;2022-11-20T00:48:48;22.20;58.70
73322;DHT22;61549;37.044;22.128;2022-11-20T00:51:16;22.30;58.90
73322;DHT22;61549;37.044;22.128;2022-11-20T00:53:44;22.30;58.90
73322;DHT22;61549;37.044;22.128;2022-11-20T00:56:12;22.30;59.00
73322;DHT22;61549;37.044;22.128;2022-11-20T00:58:40;22.10;57.80
73322;DHT22;61549;37.044;22.128;2022-11-20T01:01:10;21.90;58.70
73322;DHT22;61549;37.044;22.128;2022-11-20T01:03:41;22.00;58.50
73322;DHT22;61549;37.044;22.128;2022-11-20T01:06:11;22.00;59.10
73322;DHT22;61549;37.044;22.128;2022-11-20T01:08:38;22.20;59.00
73322;DHT22;61549;37.044;22.128;2022-11-20T01:11:12;22.20;57.90
73322;DHT22;61549;37.044;22.128;2022-11-20T01:13:39;22.30;56.60
73322;DHT22;61549;37.044;22.128;2022-11-20T01:18:35;22.30;56.60
73322;DHT22;61549;37.044;22.128;2022-11-20T01:21:06;22.20;55.20
73322;DHT22;61549;37.044;22.128;2022-11-20T01:23:37;22.30;53.80
73322;DHT22;61549;37.044;22.128;2022-11-20T01:26:06;22.30;53.80
73322;DHT22;61549;37.044;22.128;2022-11-20T01:28:33;22.20;54.60
73322;DHT22;61549;37.044;22.128;2022-11-20T01:30:59;22.30;54.60
73322;DHT22;61549;37.044;22.128;2022-11-20T01:33:26;22.50;55.20
73322;DHT22;61549;37.044;22.128;2022-11-20T01:35:52;22.60;55.70
73322;DHT22;61549;37.044;22.128;2022-11-20T01:38:18;22.60;53.10
73322;DHT22;61549;37.044;22.128;2022-11-20T01:40:53;22.70;53.90
73322;DHT22;61549;37.044;22.128;2022-11-20T01:43:20;22.70;52.70
73322;DHT22;61549;37.044;22.128;2022-11-20T01:48:26;22.80;53.00
73322;DHT22;61549;37.044;22.128;2022-11-20T01:50:55;22.80;52.90
73322;DHT22;61549;37.044;22.128;2022-11-20T01:53:27;22.90;51.30
73322;DHT22;61549;37.044;22.128;2022-11-20T01:55:57;23.00;51.30
73322;DHT22;61549;37.044;22.128;2022-11-20T01:58:29;23.00;51.00
73322;DHT22;61549;37.044;22.128;2022-11-20T02:00:55;23.00;51.60
73322;DHT22;61549;37.044;22.128;2022-11-20T02:03:22;22.90;51.80
73322;DHT22;61549;37.044;22.128;2022-11-20T02:08:20;23.00;50.50
73322;DHT22;61549;37.044;22.128;2022-11-20T02:10:47;23.10;50.20
73322;DHT22;61549;37.044;22.128;2022-11-20T02:13:13;23.10;51.10
73322;DHT22;61549;37.044;22.128;2022-11-20T02:15:57;23.20;50.20
73322;DHT22;61549;37.044;22.128;2022-11-20T02:18:24;23.10;49.70
73322;DHT22;61549;37.044;22.128;2022-11-20T02:20:59;23.00;51.10
73322;DHT22;61549;37.044;22.128;2022-11-20T02:25:58;22.60;53.80
73322;DHT22;61549;37.044;22.128;2022-11-20T02:28:25;22.70;54.60
73322;DHT22;61549;37.044;22.128;2022-11-20T02:30:52;22.80;54.70
73322;DHT22;61549;37.044;22.128;2022-11-20T02:33:18;22.60;50.60
73322;DHT22;61549;37.044;22.128;2022-11-20T02:35:46;22.70;50.20
73322;DHT22;61549;37.044;22.128;2022-11-20T02:38:13;22.80;49.80
73322;DHT22;61549;37.044;22.128;2022-11-20T02:40:39;22.80;50.70
73322;DHT22;61549;37.044;22.128;2022-11-20T02:43:05;23.00;51.10
73322;DHT22;61549;37.044;22.128;2022-11-20T02:45:30;23.00;50.80
73322;DHT22;61549;37.044;22.128;2022-11-20T02:47:59;23.00;52.10
73322;DHT22;61549;37.044;22.128;2022-11-20T02:50:25;23.10;51.60
73322;DHT22;61549;37.044;22.128;2022-11-20T02:52:50;23.00;53.00
73322;DHT22;61549;37.044;22.128;2022-11-20T02:55:16;23.10;54.00
73322;DHT22;61549;37.044;22.128;2022-11-20T02:57:42;23.20;55.10
73322;DHT22;61549;37.044;22.128;2022-11-20T03:00:09;23.30;55.80
73322;DHT22;61549;37.044;22.128;2022-11-20T03:02:34;23.10;53.70
73322;DHT22;61549;37.044;22.128;2022-11-20T03:05:00;23.00;52.10
73322;DHT22;61549;37.044;22.128;2022-11-20T03:07:26;22.90;50.70
73322;DHT22;61549;37.044;22.128;2022-11-20T03:09:52;22.90;51.30
73322;DHT22;61549;37.044;22.128;2022-11-20T03:12:18;23.00;51.80
73322;DHT22;61549;37.044;22.128;2022-11-20T03:14:44;23.00;52.50
73322;DHT22;61549;37.044;22.128;2022-11-20T03:17:10;22.90;53.80
73322;DHT22;61549;37.044;22.128;2022-11-20T03:19:37;22.70;55.90
73322;DHT22;61549;37.044;22.128;2022-11-20T03:22:03;22.80;55.90
73322;DHT22;61549;37.044;22.128;2022-11-20T03:24:29;22.90;55.90
73322;DHT22;61549;37.044;22.128;2022-11-20T03:26:55;23.00;50.90
73322;DHT22;61549;37.044;22.128;2022-11-20T03:29:21;22.90;51.30
73322;DHT22;61549;37.044;22.128;2022-11-20T03:31:47;23.10;51.80
73322;DHT22;61549;37.044;22.128;2022-11-20T03:34:13;23.10;51.30
73322;DHT22;61549;37.044;22.128;2022-11-20T03:36:40;23.10;52.70
73322;DHT22;61549;37.044;22.128;2022-11-20T03:39:06;23.10;53.10
73322;DHT22;61549;37.044;22.128;2022-11-20T03:41:39;23.00;52.80
73322;DHT22;61549;37.044;22.128;2022-11-20T03:44:08;22.90;52.80
73322;DHT22;61549;37.044;22.128;2022-11-20T03:46:35;22.90;54.10
73322;DHT22;61549;37.044;22.128;2022-11-20T03:49:01;22.80;52.60
73322;DHT22;61549;37.044;22.128;2022-11-20T03:51:29;22.70;53.30
73322;DHT22;61549;37.044;22.128;2022-11-20T03:53:57;22.90;52.70
73322;DHT22;61549;37.044;22.128;2022-11-20T03:56:26;22.90;52.40
73322;DHT22;61549;37.044;22.128;2022-11-20T03:58:52;23.00;52.80
73322;DHT22;61549;37.044;22.128;2022-11-20T04:01:21;23.10;52.80
73322;DHT22;61549;37.044;22.128;2022-11-20T04:03:48;23.10;53.70
73322;DHT22;61549;37.044;22.128;2022-11-20T04:06:18;22.90;54.30
73322;DHT22;61549;37.044;22.128;2022-11-20T04:08:46;22.90;53.90
73322;DHT22;61549;37.044;22.128;2022-11-20T04:11:13;22.90;53.60
73322;DHT22;61549;37.044;22.128;2022-11-20T04:13:40;23.00;55.60
73322;DHT22;61549;37.044;22.128;2022-11-20T04:16:08;23.00;54.40
73322;DHT22;61549;37.044;22.128;2022-11-20T04:18:34;22.80;53.00
73322;DHT22;61549;37.044;22.128;2022-11-20T04:21:00;22.80;53.30
73322;DHT22;61549;37.044;22.128;2022-11-20T04:23:27;22.60;53.70
73322;DHT22;61549;37.044;22.128;2022-11-20T04:25:53;22.50;54.70
73322;DHT22;61549;37.044;22.128;2022-11-20T04:28:19;22.60;55.50
73322;DHT22;61549;37.044;22.128;2022-11-20T04:30:45;22.60;54.90
73322;DHT22;61549;37.044;22.128;2022-11-20T04:33:11;22.80;54.10
73322;DHT22;61549;37.044;22.128;2022-11-20T04:35:37;22.80;53.80
73322;DHT22;61549;37.044;22.128;2022-11-20T04:38:04;22.90;53.00
73322;DHT22;61549;37.044;22.128;2022-11-20T04:40:30;22.90;52.30
73322;DHT22;61549;37.044;22.128;2022-11-20T04:42:57;23.00;52.70
73322;DHT22;61549;37.044;22.128;2022-11-20T04:45:23;23.00;51.30
73322;DHT22;61549;37.044;22.128;2022-11-20T04:47:49;23.10;51.70
73322;DHT22;61549;37.044;22.128;2022-11-20T04:50:15;23.10;51.80
73322;DHT22;61549;37.044;22.128;2022-11-20T04:52:41;23.10;52.20
73322;DHT22;61549;37.044;22.128;2022-11-20T04:55:07;23.00;53.60
73322;DHT22;61549;37.044;22.128;2022-11-20T04:57:33;23.00;54.90
73322;DHT22;61549;37.044;22.128;2022-11-20T04:59:59;22.90;55.10
73322;DHT22;61549;37.044;22.128;2022-11-20T05:02:25;22.80;55.70
73322;DHT22;61549;37.044;22.128;2022-11-20T05:04:51;22.80;56.10
73322;DHT22;61549;37.044;22.128;2022-11-20T05:07:17;22.90;55.80
73322;DHT22;61549;37.044;22.128;2022-11-20T05:09:43;22.90;56.20
73322;DHT22;61549;37.044;22.128;2022-11-20T05:12:10;22.90;55.60
73322;DHT22;61549;37.044;22.128;2022-11-20T05:14:36;23.00;55.40
73322;DHT22;61549;37.044;22.128;2022-11-20T05:17:02;23.10;55.50
73322;DHT22;61549;37.044;22.128;2022-11-20T05:19:28;23.00;54.70
73322;DHT22;61549;37.044;22.128;2022-11-20T05:21:54;23.00;55.10
73322;DHT22;61549;37.044;22.128;2022-11-20T05:24:19;23.00;54.50
73322;DHT22;61549;37.044;22.128;2022-11-20T05:26:45;23.10;54.60
73322;DHT22;61549;37.044;22.128;2022-11-20T05:29:12;23.20;55.00
73322;DHT22;61549;37.044;22.128;2022-11-20T05:31:39;23.20;55.10
73322;DHT22;61549;37.044;22.128;2022-11-20T05:34:06;23.40;55.10
73322;DHT22;61549;37.044;22.128;2022-11-20T05:36:32;23.40;55.10
73322;DHT22;61549;37.044;22.128;2022-11-20T05:38:58;23.10;55.60
73322;DHT22;61549;37.044;22.128;2022-11-20T05:41:24;22.90;56.60
73322;DHT22;61549;37.044;22.128;2022-11-20T05:43:51;23.00;56.30
73322;DHT22;61549;37.044;22.128;2022-11-20T05:46:19;23.10;56.20
73322;DHT22;61549;37.044;22.128;2022-11-20T05:48:45;23.20;56.40
73322;DHT22;61549;37.044;22.128;2022-11-20T05:51:14;23.20;56.90
73322;DHT22;61549;37.044;22.128;2022-11-20T05:53:40;23.30;57.10
73322;DHT22;61549;37.044;22.128;2022-11-20T05:56:11;23.20;57.70
73322;DHT22;61549;37.044;22.128;2022-11-20T05:58:38;23.30;57.20
73322;DHT22;61549;37.044;22.128;2022-11-20T06:01:13;23.30;56.90
73322;DHT22;61549;37.044;22.128;2022-11-20T06:03:40;23.40;57.20
73322;DHT22;61549;37.044;22.128;2022-11-20T06:06:08;23.30;57.10
73322;DHT22;61549;37.044;22.128;2022-11-20T06:11:19;23.30;57.60
73322;DHT22;61549;37.044;22.128;2022-11-20T06:13:46;23.40;57.30
73322;DHT22;61549;37.044;22.128;2022-11-20T06:16:15;23.40;57.40
73322;DHT22;61549;37.044;22.128;2022-11-20T06:18:41;23.30;57.00
73322;DHT22;61549;37.044;22.128;2022-11-20T06:21:10;23.40;57.10
73322;DHT22;61549;37.044;22.128;2022-11-20T06:23:36;23.50;57.30
73322;DHT22;61549;37.044;22.128;2022-11-20T06:26:08;23.40;58.00
73322;DHT22;61549;37.044;22.128;2022-11-20T06:28:35;23.50;58.30
73322;DHT22;61549;37.044;22.128;2022-11-20T06:31:01;23.40;58.60
73322;DHT22;61549;37.044;22.128;2022-11-20T06:33:28;23.60;58.90
73322;DHT22;61549;37.044;22.128;2022-11-20T06:35:57;23.70;58.40
73322;DHT22;61549;37.044;22.128;2022-11-20T06:38:25;23.80;57.80
73322;DHT22;61549;37.044;22.128;2022-11-20T06:40:51;23.80;57.30
73322;DHT22;61549;37.044;22.128;2022-11-20T06:43:17;23.90;57.90
73322;DHT22;61549;37.044;22.128;2022-11-20T06:45:43;24.00;57.90
73322;DHT22;61549;37.044;22.128;2022-11-20T06:48:09;24.10;57.40
73322;DHT22;61549;37.044;22.128;2022-11-20T06:50:37;23.90;57.40
73322;DHT22;61549;37.044;22.128;2022-11-20T06:53:04;23.90;57.90
73322;DHT22;61549;37.044;22.128;2022-11-20T06:55:31;23.80;57.80
73322;DHT22;61549;37.044;22.128;2022-11-20T06:57:57;23.80;57.70
73322;DHT22;61549;37.044;22.128;2022-11-20T07:00:23;23.80;57.90
73322;DHT22;61549;37.044;22.128;2022-11-20T07:02:49;23.70;58.00
73322;DHT22;61549;37.044;22.128;2022-11-20T07:05:16;23.60;57.90
73322;DHT22;61549;37.044;22.128;2022-11-20T07:07:41;23.80;58.10
73322;DHT22;61549;37.044;22.128;2022-11-20T07:10:08;23.70;58.70
73322;DHT22;61549;37.044;22.128;2022-11-20T07:12:34;23.70;59.60
73322;DHT22;61549;37.044;22.128;2022-11-20T07:15:00;23.60;59.00
73322;DHT22;61549;37.044;22.128;2022-11-20T07:17:26;23.70;58.90
73322;DHT22;61549;37.044;22.128;2022-11-20T07:19:52;23.80;58.60
73322;DHT22;61549;37.044;22.128;2022-11-20T07:22:17;23.90;58.70
73322;DHT22;61549;37.044;22.128;2022-11-20T07:24:43;23.80;58.50
73322;DHT22;61549;37.044;22.128;2022-11-20T07:27:09;23.90;58.70
73322;DHT22;61549;37.044;22.128;2022-11-20T07:29:35;23.80;58.70
73322;DHT22;61549;37.044;22.128;2022-11-20T07:32:01;23.90;58.40
73322;DHT22;61549;37.044;22.128;2022-11-20T07:34:27;23.80;58.40
73322;DHT22;61549;37.044;22.128;2022-11-20T07:36:53;23.70;59.10
73322;DHT22;61549;37.044;22.128;2022-11-20T07:39:19;23.60;58.90
73322;DHT22;61549;37.044;22.128;2022-11-20T07:41:44;23.70;59.00
73322;DHT22;61549;37.044;22.128;2022-11-20T08:10:32;23.00;60.00
73322;DHT22;61549;37.044;22.128;2022-11-20T08:12:58;23.60;58.60
73322;DHT22;61549;37.044;22.128;2022-11-20T08:15:48;23.70;58.00
73322;DHT22;61549;37.044;22.128;2022-11-20T08:18:16;23.80;58.20
73322;DHT22;61549;37.044;22.128;2022-11-20T08:20:43;23.90;58.00
73322;DHT22;61549;37.044;22.128;2022-11-20T08:23:09;23.90;57.70
73322;DHT22;61549;37.044;22.128;2022-11-20T08:25:36;23.90;57.80
73322;DHT22;61549;37.044;22.128;2022-11-20T08:28:07;23.80;58.00
73322;DHT22;61549;37.044;22.128;2022-11-20T08:30:34;23.80;57.50
73322;DHT22;61549;37.044;22.128;2022-11-20T08:33:05;23.70;57.50
73322;DHT22;61549;37.044;22.128;2022-11-20T08:35:37;23.80;57.70
73322;DHT22;61549;37.044;22.128;2022-11-20T08:38:07;23.80;56.90
73322;DHT22;61549;37.044;22.128;2022-11-20T08:40:33;23.90;57.00
73322;DHT22;61549;37.044;22.128;2022-11-20T08:42:59;24.00;56.50
73322;DHT22;61549;37.044;22.128;2022-11-20T08:45:25;23.90;56.50
73322;DHT22;61549;37.044;22.128;2022-11-20T08:47:50;24.00;56.10
73322;DHT22;61549;37.044;22.128;2022-11-20T08:50:27;24.00;56.30
73322;DHT22;61549;37.044;22.128;2022-11-20T08:52:53;23.90;56.50
73322;DHT22;61549;37.044;22.128;2022-11-20T08:55:19;23.80;57.20
73322;DHT22;61549;37.044;22.128;2022-11-20T08:57:45;23.90;57.20
73322;DHT22;61549;37.044;22.128;2022-11-20T09:00:11;23.90;56.80
73322;DHT22;61549;37.044;22.128;2022-11-20T09:02:37;23.80;55.70
73322;DHT22;61549;37.044;22.128;2022-11-20T09:05:04;23.80;57.00
73322;DHT22;61549;37.044;22.128;2022-11-20T09:07:30;23.80;57.50
73322;DHT22;61549;37.044;22.128;2022-11-20T09:09:55;23.80;57.60
73322;DHT22;61549;37.044;22.128;2022-11-20T09:12:22;23.90;57.00
73322;DHT22;61549;37.044;22.128;2022-11-20T09:14:47;23.90;56.60
73322;DHT22;61549;37.044;22.128;2022-11-20T09:17:13;23.90;56.40
73322;DHT22;61549;37.044;22.128;2022-11-20T09:19:40;23.80;56.60
73322;DHT22;61549;37.044;22.128;2022-11-20T09:22:06;23.90;56.10
73322;DHT22;61549;37.044;22.128;2022-11-20T09:24:32;23.90;55.90
73322;DHT22;61549;37.044;22.128;2022-11-20T09:27:00;23.90;56.10
73322;DHT22;61549;37.044;22.128;2022-11-20T09:29:26;23.90;56.20
73322;DHT22;61549;37.044;22.128;2022-11-20T09:31:52;23.90;55.60
73322;DHT22;61549;37.044;22.128;2022-11-20T09:34:18;24.00;56.00
73322;DHT22;61549;37.044;22.128;2022-11-20T09:36:44;23.90;55.60
73322;DHT22;61549;37.044;22.128;2022-11-20T09:39:13;23.90;55.60
73322;DHT22;61549;37.044;22.128;2022-11-20T09:41:49;24.00;56.60
73322;DHT22;61549;37.044;22.128;2022-11-20T09:47:01;24.10;55.00
73322;DHT22;61549;37.044;22.128;2022-11-20T09:49:56;24.10;55.40
73322;DHT22;61549;37.044;22.128;2022-11-20T09:52:37;24.20;55.70
73322;DHT22;61549;37.044;22.128;2022-11-20T09:55:12;24.00;54.80
73322;DHT22;61549;37.044;22.128;2022-11-20T09:57:46;24.00;56.00
73322;DHT22;61549;37.044;22.128;2022-11-20T10:00:14;24.10;55.90
73322;DHT22;61549;37.044;22.128;2022-11-20T10:05:26;24.10;54.30
73322;DHT22;61549;37.044;22.128;2022-11-20T10:08:28;24.00;54.40
73322;DHT22;61549;37.044;22.128;2022-11-20T10:18:33;23.90;54.70
73322;DHT22;61549;37.044;22.128;2022-11-20T10:21:11;23.90;54.70
73322;DHT22;61549;37.044;22.128;2022-11-20T10:26:53;23.90;54.50
73322;DHT22;61549;37.044;22.128;2022-11-20T10:29:33;24.00;54.60
73322;DHT22;61549;37.044;22.128;2022-11-20T10:32:04;23.90;53.70
73322;DHT22;61549;37.044;22.128;2022-11-20T10:34:59;23.90;54.00
73322;DHT22;61549;37.044;22.128;2022-11-20T10:37:27;24.00;53.60
73322;DHT22;61549;37.044;22.128;2022-11-20T10:40:01;24.20;52.90
73322;DHT22;61549;37.044;22.128;2022-11-20T10:42:41;24.20;53.10
73322;DHT22;61549;37.044;22.128;2022-11-20T10:47:40;24.10;51.70
73322;DHT22;61549;37.044;22.128;2022-11-20T10:50:11;24.20;52.20
73322;DHT22;61549;37.044;22.128;2022-11-20T10:55:26;24.10;52.70
73322;DHT22;61549;37.044;22.128;2022-11-20T10:58:01;24.10;52.60
73322;DHT22;61549;37.044;22.128;2022-11-20T11:00:32;24.10;52.70
73322;DHT22;61549;37.044;22.128;2022-11-20T11:02:58;24.20;52.30
73322;DHT22;61549;37.044;22.128;2022-11-20T11:05:43;24.20;52.30
73322;DHT22;61549;37.044;22.128;2022-11-20T11:08:16;24.20;52.50
73322;DHT22;61549;37.044;22.128;2022-11-20T11:10:53;24.20;52.60
73322;DHT22;61549;37.044;22.128;2022-11-20T11:13:29;24.20;53.20
73322;DHT22;61549;37.044;22.128;2022-11-20T11:15:56;24.20;52.80
73322;DHT22;61549;37.044;22.128;2022-11-20T11:18:33;24.20;53.30
73322;DHT22;61549;37.044;22.128;2022-11-20T11:21:02;24.20;53.50
73322;DHT22;61549;37.044;22.128;2022-11-20T11:25:58;24.20;53.70
73322;DHT22;61549;37.044;22.128;2022-11-20T11:28:26;24.20;54.60
73322;DHT22;61549;37.044;22.128;2022-11-20T11:30:54;24.10;54.30
73322;DHT22;61549;37.044;22.128;2022-11-20T11:33:22;24.00;54.40
73322;DHT22;61549;37.044;22.128;2022-11-20T11:35:53;24.10;55.00
73322;DHT22;61549;37.044;22.128;2022-11-20T11:38:41;24.20;54.70
73322;DHT22;61549;37.044;22.128;2022-11-20T11:41:16;24.30;53.80
73322;DHT22;61549;37.044;22.128;2022-11-20T11:43:52;24.40;54.20
73322;DHT22;61549;37.044;22.128;2022-11-20T11:46:37;24.60;53.60
73322;DHT22;61549;37.044;22.128;2022-11-20T11:51:47;24.70;53.80
73322;DHT22;61549;37.044;22.128;2022-11-20T11:57:16;24.90;53.80
73322;DHT22;61549;37.044;22.128;2022-11-20T11:59:54;25.00;52.30
73322;DHT22;61549;37.044;22.128;2022-11-20T12:04:59;24.90;52.50
73322;DHT22;61549;37.044;22.128;2022-11-20T12:07:40;24.90;52.90
73322;DHT22;61549;37.044;22.128;2022-11-20T12:16:16;24.50;53.20
73322;DHT22;61549;37.044;22.128;2022-11-20T12:18:43;24.50;53.60
73322;DHT22;61549;37.044;22.128;2022-11-20T12:26:48;24.40;54.60
73322;DHT22;61549;37.044;22.128;2022-11-20T12:36:01;24.60;55.20
73322;DHT22;61549;37.044;22.128;2022-11-20T12:38:57;24.70;55.00
73322;DHT22;61549;37.044;22.128;2022-11-20T12:52:56;24.30;54.10
73322;DHT22;61549;37.044;22.128;2022-11-20T12:58:11;24.20;53.00
73322;DHT22;61549;37.044;22.128;2022-11-20T13:00:47;24.10;53.70
73322;DHT22;61549;37.044;22.128;2022-11-20T13:06:21;24.00;52.90
73322;DHT22;61549;37.044;22.128;2022-11-20T13:08:56;24.00;53.30
73322;DHT22;61549;37.044;22.128;2022-11-20T13:17:00;24.10;53.40
73322;DHT22;61549;37.044;22.128;2022-11-20T13:19:30;24.00;54.10
73322;DHT22;61549;37.044;22.128;2022-11-20T13:21:56;24.00;52.90
73322;DHT22;61549;37.044;22.128;2022-11-20T13:24:23;23.90;53.80
73322;DHT22;61549;37.044;22.128;2022-11-20T13:29:37;23.90;53.70
73322;DHT22;61549;37.044;22.128;2022-11-20T13:32:16;23.90;52.80
73322;DHT22;61549;37.044;22.128;2022-11-20T13:35:03;23.90;53.50
73322;DHT22;61549;37.044;22.128;2022-11-20T13:37:32;24.10;53.20
73322;DHT22;61549;37.044;22.128;2022-11-20T13:42:40;24.20;52.10
73322;DHT22;61549;37.044;22.128;2022-11-20T13:45:11;24.10;51.60
73322;DHT22;61549;37.044;22.128;2022-11-20T13:47:51;24.20;52.00
73322;DHT22;61549;37.044;22.128;2022-11-20T13:50:17;24.10;52.20
73322;DHT22;61549;37.044;22.128;2022-11-20T13:53:02;24.10;52.10
73322;DHT22;61549;37.044;22.128;2022-11-20T13:55:42;23.90;52.30
73322;DHT22;61549;37.044;22.128;2022-11-20T14:01:23;23.90;51.70
73322;DHT22;61549;37.044;22.128;2022-11-20T14:03:50;23.90;51.90
73322;DHT22;61549;37.044;22.128;2022-11-20T14:08:53;23.90;51.20
73322;DHT22;61549;37.044;22.128;2022-11-20T14:11:20;23.90;51.40
73322;DHT22;61549;37.044;22.128;2022-11-20T14:13:58;23.90;51.20
73322;DHT22;61549;37.044;22.128;2022-11-20T14:16:25;23.90;51.80
73322;DHT22;61549;37.044;22.128;2022-11-20T14:18:52;23.90;51.90
73322;DHT22;61549;37.044;22.128;2022-11-20T14:21:28;23.90;50.70
73322;DHT22;61549;37.044;22.128;2022-11-20T14:24:22;23.90;50.30
73322;DHT22;61549;37.044;22.128;2022-11-20T14:26:51;23.80;50.00
73322;DHT22;61549;37.044;22.128;2022-11-20T14:29:20;23.80;50.30
73322;DHT22;61549;37.044;22.128;2022-11-20T14:31:48;23.90;51.10
73322;DHT22;61549;37.044;22.128;2022-11-20T14:34:21;23.80;50.90
73322;DHT22;61549;37.044;22.128;2022-11-20T14:36:48;23.90;50.30
73322;DHT22;61549;37.044;22.128;2022-11-20T14:39:25;23.90;50.10
73322;DHT22;61549;37.044;22.128;2022-11-20T14:41:53;23.90;50.50
73322;DHT22;61549;37.044;22.128;2022-11-20T14:44:29;23.70;50.80
73322;DHT22;61549;37.044;22.128;2022-11-20T14:46:55;23.70;50.60
73322;DHT22;61549;37.044;22.128;2022-11-20T14:49:22;23.70;50.80
73322;DHT22;61549;37.044;22.128;2022-11-20T14:52:02;23.70;51.10
73322;DHT22;61549;37.044;22.128;2022-11-20T14:54:28;23.70;51.40
73322;DHT22;61549;37.044;22.128;2022-11-20T14:57:03;23.60;51.60
73322;DHT22;61549;37.044;22.128;2022-11-20T14:59:32;23.80;51.00
73322;DHT22;61549;37.044;22.128;2022-11-20T15:02:04;23.80;50.90
73322;DHT22;61549;37.044;22.128;2022-11-20T15:04:30;23.80;51.30
73322;DHT22;61549;37.044;22.128;2022-11-20T15:06:59;23.70;51.80
73322;DHT22;61549;37.044;22.128;2022-11-20T15:09:27;23.80;52.10
73322;DHT22;61549;37.044;22.128;2022-11-20T15:11:59;23.80;52.10
73322;DHT22;61549;37.044;22.128;2022-11-20T15:14:27;23.70;52.40
73322;DHT22;61549;37.044;22.128;2022-11-20T15:16:54;23.70;50.90
73322;DHT22;61549;37.044;22.128;2022-11-20T15:19:22;23.70;47.90
73322;DHT22;61549;37.044;22.128;2022-11-20T15:21:49;23.70;47.90
73322;DHT22;61549;37.044;22.128;2022-11-20T15:24:15;23.90;48.10
73322;DHT22;61549;37.044;22.128;2022-11-20T15:26:41;23.90;47.80
73322;DHT22;61549;37.044;22.128;2022-11-20T15:29:12;23.70;51.50
73322;DHT22;61549;37.044;22.128;2022-11-20T15:31:39;23.70;52.00
73322;DHT22;61549;37.044;22.128;2022-11-20T15:34:14;23.70;52.40
73322;DHT22;61549;37.044;22.128;2022-11-20T15:36:41;23.60;52.70
73322;DHT22;61549;37.044;22.128;2022-11-20T15:39:08;23.50;53.00
73322;DHT22;61549;37.044;22.128;2022-11-20T15:41:34;23.40;53.20
73322;DHT22;61549;37.044;22.128;2022-11-20T15:44:01;23.50;52.50
73322;DHT22;61549;37.044;22.128;2022-11-20T15:46:33;23.40;53.20
73322;DHT22;61549;37.044;22.128;2022-11-20T15:49:04;23.50;53.30
73322;DHT22;61549;37.044;22.128;2022-11-20T15:51:35;23.50;52.80
73322;DHT22;61549;37.044;22.128;2022-11-20T15:54:16;23.50;53.10
73322;DHT22;61549;37.044;22.128;2022-11-20T15:56:43;23.40;53.70
73322;DHT22;61549;37.044;22.128;2022-11-20T15:59:09;23.50;53.80
73322;DHT22;61549;37.044;22.128;2022-11-20T16:01:35;23.50;53.90
73322;DHT22;61549;37.044;22.128;2022-11-20T16:04:01;23.60;53.70
73322;DHT22;61549;37.044;22.128;2022-11-20T16:06:27;23.50;54.00
73322;DHT22;61549;37.044;22.128;2022-11-20T16:08:53;23.60;53.80
73322;DHT22;61549;37.044;22.128;2022-11-20T16:11:19;23.70;53.30
73322;DHT22;61549;37.044;22.128;2022-11-20T16:13:45;23.70;53.50
73322;DHT22;61549;37.044;22.128;2022-11-20T16:16:33;23.60;53.40
73322;DHT22;61549;37.044;22.128;2022-11-20T16:18:59;23.60;53.60
73322;DHT22;61549;37.044;22.128;2022-11-20T16:21:26;23.60;53.60
73322;DHT22;61549;37.044;22.128;2022-11-20T16:24:06;23.60;54.10
73322;DHT22;61549;37.044;22.128;2022-11-20T16:26:32;23.50;54.50
73322;DHT22;61549;37.044;22.128;2022-11-20T16:29:00;23.40;55.00
73322;DHT22;61549;37.044;22.128;2022-11-20T16:31:26;23.50;54.60
73322;DHT22;61549;37.044;22.128;2022-11-20T16:33:55;23.50;54.60
73322;DHT22;61549;37.044;22.128;2022-11-20T16:36:25;23.70;54.10
73322;DHT22;61549;37.044;22.128;2022-11-20T16:38:58;23.60;54.60
73322;DHT22;61549;37.044;22.128;2022-11-20T16:41:26;23.40;55.20
73322;DHT22;61549;37.044;22.128;2022-11-20T16:43:54;23.40;55.30
73322;DHT22;61549;37.044;22.128;2022-11-20T16:46:23;23.50;55.00
73322;DHT22;61549;37.044;22.128;2022-11-20T16:49:03;23.50;55.00
73322;DHT22;61549;37.044;22.128;2022-11-20T16:51:31;23.40;55.40
73322;DHT22;61549;37.044;22.128;2022-11-20T16:54:02;23.40;55.60
73322;DHT22;61549;37.044;22.128;2022-11-20T16:56:28;23.50;55.50
73322;DHT22;61549;37.044;22.128;2022-11-20T16:58:57;23.50;55.40
73322;DHT22;61549;37.044;22.128;2022-11-20T17:01:25;23.40;55.60
73322;DHT22;61549;37.044;22.128;2022-11-20T17:03:58;23.40;56.00
73322;DHT22;61549;37.044;22.128;2022-11-20T17:06:27;23.40;56.10
73322;DHT22;61549;37.044;22.128;2022-11-20T17:08:55;23.30;56.10
73322;DHT22;61549;37.044;22.128;2022-11-20T17:11:21;23.30;56.30
73322;DHT22;61549;37.044;22.128;2022-11-20T17:13:48;23.20;56.40
73322;DHT22;61549;37.044;22.128;2022-11-20T17:16:17;23.20;56.50
73322;DHT22;61549;37.044;22.128;2022-11-20T17:18:43;23.20;56.50
73322;DHT22;61549;37.044;22.128;2022-11-20T17:21:10;23.30;56.60
73322;DHT22;61549;37.044;22.128;2022-11-20T17:23:38;23.30;56.70
73322;DHT22;61549;37.044;22.128;2022-11-20T17:26:09;23.30;56.40
73322;DHT22;61549;37.044;22.128;2022-11-20T17:28:36;23.30;56.80